createdAt,value
2024-05-09T00:00:35.454Z,99.07
2024-05-09T00:03:10.630Z,99.72
2024-05-09T00:05:41.608Z,99.77
2024-05-09T00:08:12.117Z,99.52
2024-05-09T00:10:41.955Z,99.65
2024-05-09T00:13:13.913Z,99.84
2024-05-09T00:15:43.136Z,99.65
2024-05-09T00:18:12.731Z,99.55
2024-05-09T00:20:42.178Z,99.86
2024-05-09T00:23:13.594Z,100.00
2024-05-09T00:25:44.987Z,100.00
2024-05-09T00:28:17.177Z,100.00
2024-05-09T00:30:46.573Z,100.00
2024-05-09T00:33:16.123Z,100.00
2024-05-09T00:35:45.654Z,100.00
2024-05-09T00:38:15.088Z,100.00
2024-05-09T00:40:44.796Z,100.00
2024-05-09T00:43:17.994Z,100.00
2024-05-09T00:45:48.574Z,100.00
2024-05-09T00:48:21.397Z,100.00
2024-05-09T00:50:53.999Z,100.00
2024-05-09T00:53:23.505Z,100.00
2024-05-09T00:55:53.973Z,100.00
2024-05-09T00:58:28.754Z,100.00
2024-05-09T01:01:00.246Z,100.00
2024-05-09T01:03:29.917Z,100.00
2024-05-09T01:05:59.535Z,100.00
2024-05-09T01:08:29.411Z,100.00
2024-05-09T01:10:58.893Z,100.00
2024-05-09T01:13:30.877Z,100.00
2024-05-09T01:16:01.073Z,100.00
2024-05-09T01:18:30.512Z,100.00
2024-05-09T01:21:00.023Z,100.00
2024-05-09T01:23:32.162Z,100.00
2024-05-09T01:26:01.682Z,100.00
2024-05-09T01:28:31.022Z,100.00
2024-05-09T01:31:00.381Z,100.00
2024-05-09T01:33:30.040Z,100.00
2024-05-09T01:35:59.681Z,100.00
2024-05-09T01:38:29.164Z,100.00
2024-05-09T01:41:01.378Z,100.00
2024-05-09T01:43:30.776Z,100.00
2024-05-09T01:46:00.107Z,100.00
2024-05-09T01:48:29.629Z,100.00
2024-05-09T01:50:59.115Z,100.00
2024-05-09T01:53:28.513Z,100.00
2024-05-09T01:55:57.916Z,100.00
2024-05-09T01:58:30.715Z,100.00
2024-05-09T02:01:00.184Z,100.00
2024-05-09T02:03:29.910Z,100.00
2024-05-09T02:05:59.425Z,100.00
2024-05-09T02:08:28.931Z,100.00
2024-05-09T02:10:58.550Z,100.00
2024-05-09T02:13:30.604Z,100.00
2024-05-09T02:16:00.160Z,100.00
2024-05-09T02:18:29.563Z,100.00
2024-05-09T02:20:59.087Z,100.00
2024-05-09T02:23:28.555Z,100.00
2024-05-09T02:25:58.014Z,100.00
2024-05-09T02:28:30.173Z,100.00
2024-05-09T02:30:59.551Z,100.00
2024-05-09T02:33:29.180Z,100.00
2024-05-09T02:35:58.626Z,100.00
2024-05-09T02:38:25.397Z,100.00
2024-05-09T02:40:54.827Z,100.00
2024-05-09T02:43:21.657Z,100.00
2024-05-09T02:45:53.628Z,100.00
2024-05-09T02:48:22.958Z,100.00
2024-05-09T02:50:49.858Z,100.00
2024-05-09T02:53:19.693Z,100.00
2024-05-09T02:55:46.834Z,100.00
2024-05-09T02:58:16.316Z,100.00
2024-05-09T03:00:43.464Z,100.00
2024-05-09T03:03:16.025Z,100.00
2024-05-09T03:05:43.702Z,100.00
2024-05-09T03:08:13.398Z,100.00
2024-05-09T03:10:40.374Z,100.00
2024-05-09T03:13:10.035Z,100.00
2024-05-09T03:15:37.156Z,100.00
2024-05-09T03:18:08.005Z,100.00
2024-05-09T03:20:37.919Z,100.00
2024-05-09T03:23:10.255Z,100.00
2024-05-09T03:25:37.543Z,100.00
2024-05-09T03:28:07.606Z,100.00
2024-05-09T03:30:40.901Z,100.00
2024-05-09T03:33:13.965Z,100.00
2024-05-09T03:35:44.272Z,100.00
2024-05-09T03:38:13.896Z,100.00
2024-05-09T03:40:47.911Z,100.00
2024-05-09T03:43:15.881Z,100.00
2024-05-09T03:45:45.503Z,100.00
2024-05-09T03:48:13.002Z,100.00
2024-05-09T03:50:42.749Z,100.00
2024-05-09T03:53:13.577Z,100.00
2024-05-09T03:55:43.500Z,100.00
2024-05-09T03:58:12.646Z,100.00
2024-05-09T04:00:42.445Z,100.00
2024-05-09T04:03:11.560Z,100.00
2024-05-09T04:05:43.858Z,100.00
2024-05-09T04:08:15.796Z,100.00
2024-05-09T04:10:45.675Z,100.00
2024-05-09T04:13:12.698Z,100.00
2024-05-09T04:15:42.111Z,100.00
2024-05-09T04:18:09.180Z,100.00
2024-05-09T04:20:40.722Z,100.00
2024-05-09T04:23:11.744Z,100.00
2024-05-09T04:25:45.623Z,100.00
2024-05-09T04:28:12.978Z,100.00
2024-05-09T04:30:42.950Z,100.00
2024-05-09T04:33:12.178Z,100.00
2024-05-09T04:35:44.878Z,100.00
2024-05-09T04:38:12.690Z,100.00
2024-05-09T04:40:44.884Z,100.00
2024-05-09T04:43:15.262Z,100.00
2024-05-09T04:45:45.152Z,100.00
2024-05-09T04:48:12.189Z,100.00
2024-05-09T04:50:41.846Z,100.00
2024-05-09T04:53:10.494Z,100.00
2024-05-09T04:55:41.011Z,100.00
2024-05-09T04:58:11.574Z,100.00
2024-05-09T05:00:41.733Z,100.00
2024-05-09T05:03:13.032Z,100.00
2024-05-09T05:05:46.088Z,100.00
2024-05-09T05:08:14.176Z,100.00
2024-05-09T05:10:43.979Z,100.00
2024-05-09T05:13:19.864Z,100.00
2024-05-09T05:15:52.495Z,100.00
2024-05-09T05:18:19.668Z,100.00
2024-05-09T05:20:49.519Z,100.00
2024-05-09T05:23:19.596Z,100.00
2024-05-09T05:25:52.402Z,100.00
2024-05-09T05:28:22.345Z,100.00
2024-05-09T05:30:51.950Z,100.00
2024-05-09T05:33:19.477Z,100.00
2024-05-09T05:35:49.308Z,100.00
2024-05-09T05:38:16.407Z,100.00
2024-05-09T05:40:45.872Z,100.00
2024-05-09T05:43:17.214Z,100.00
2024-05-09T05:45:49.416Z,100.00
2024-05-09T05:48:17.227Z,100.00
2024-05-09T05:50:47.349Z,100.00
2024-05-09T05:53:14.452Z,100.00
2024-05-09T05:55:44.636Z,100.00
2024-05-09T05:58:12.139Z,100.00
2024-05-09T06:00:43.203Z,100.00
2024-05-09T06:03:13.450Z,100.00
2024-05-09T06:05:45.524Z,100.00
2024-05-09T06:08:12.717Z,100.00
2024-05-09T06:10:42.702Z,100.00
2024-05-09T06:13:11.099Z,100.00
2024-05-09T06:15:41.316Z,100.00
2024-05-09T06:18:09.723Z,100.00
2024-05-09T06:20:44.037Z,100.00
2024-05-09T06:23:12.394Z,100.00
2024-05-09T06:25:42.792Z,100.00
2024-05-09T06:28:09.752Z,100.00
2024-05-09T06:30:42.229Z,100.00
2024-05-09T06:33:13.052Z,100.00
2024-05-09T06:35:47.105Z,100.00
2024-05-09T06:38:14.150Z,100.00
2024-05-09T06:40:44.630Z,100.00
2024-05-09T06:43:12.331Z,100.00
2024-05-09T06:45:42.062Z,100.00
2024-05-09T06:48:09.948Z,100.00
2024-05-09T06:50:40.376Z,100.00
2024-05-09T06:53:10.276Z,100.00
2024-05-09T06:55:39.772Z,100.00
2024-05-09T06:58:08.914Z,100.00
2024-05-09T07:00:40.933Z,100.00
2024-05-09T07:03:13.046Z,100.00
2024-05-09T07:05:42.751Z,99.91
2024-05-09T07:08:15.154Z,99.50
2024-05-09T07:10:42.036Z,99.27
2024-05-09T07:13:12.198Z,98.99
2024-05-09T07:15:39.277Z,96.54
2024-05-09T07:18:13.929Z,94.90
2024-05-09T07:20:41.457Z,93.92
2024-05-09T07:23:11.765Z,92.04
2024-05-09T07:25:42.038Z,91.00
2024-05-09T07:28:13.775Z,88.97
2024-05-09T07:30:40.722Z,88.66
2024-05-09T07:33:12.112Z,88.69
2024-05-09T07:35:39.176Z,89.11
2024-05-09T07:38:08.803Z,88.36
2024-05-09T07:40:37.110Z,88.34
2024-05-09T07:43:11.451Z,88.24
2024-05-09T07:45:48.546Z,87.59
2024-05-09T07:52:38.039Z,85.94
2024-05-09T07:53:47.972Z,85.84
2024-05-09T07:56:19.394Z,83.78
2024-05-09T07:58:55.314Z,82.77
2024-05-09T08:01:24.600Z,81.56
2024-05-09T08:03:54.545Z,80.02
2024-05-09T08:06:21.801Z,80.19
2024-05-09T08:08:51.254Z,80.12
2024-05-09T08:11:19.589Z,79.59
2024-05-09T08:13:49.165Z,79.85
2024-05-09T08:16:18.673Z,78.48
2024-05-09T08:18:48.237Z,79.11
2024-05-09T08:21:15.078Z,77.24
2024-05-09T08:23:44.485Z,74.70
2024-05-09T08:26:11.348Z,75.02
2024-05-09T08:28:40.738Z,75.03
2024-05-09T08:31:07.854Z,74.31
2024-05-09T08:33:40.067Z,73.64
2024-05-09T08:36:07.342Z,73.77
2024-05-09T08:38:36.725Z,74.96
2024-05-09T08:41:04.323Z,74.89
2024-05-09T08:43:33.747Z,73.58
2024-05-09T08:46:03.244Z,72.63
2024-05-09T08:48:35.052Z,72.16
2024-05-09T08:51:06.177Z,72.36
2024-05-09T08:53:35.802Z,71.09
2024-05-09T08:56:02.766Z,70.69
2024-05-09T08:58:33.151Z,70.24
2024-05-09T09:01:02.481Z,70.00
2024-05-09T09:03:35.425Z,70.28
2024-05-09T09:06:06.567Z,68.83
2024-05-09T09:08:36.026Z,69.71
2024-05-09T09:11:04.078Z,69.72
2024-05-09T09:13:33.580Z,67.88
2024-05-09T09:16:02.635Z,65.63
2024-05-09T09:18:33.034Z,66.09
2024-05-09T09:21:00.891Z,66.21
2024-05-09T09:23:32.906Z,64.46
2024-05-09T09:25:59.781Z,65.05
2024-05-09T09:28:29.514Z,66.19
2024-05-09T09:31:01.944Z,64.70
2024-05-09T09:33:32.073Z,65.38
2024-05-09T09:35:59.320Z,66.21
2024-05-09T09:38:34.849Z,66.50
2024-05-09T09:41:06.650Z,65.72
2024-05-09T09:43:36.305Z,65.86
2024-05-09T09:46:06.308Z,65.09
2024-05-09T09:48:38.749Z,64.79
2024-05-09T09:51:07.773Z,63.46
2024-05-09T09:53:40.859Z,61.53
2024-05-09T09:56:10.450Z,61.48
2024-05-09T09:58:41.517Z,61.25
2024-05-09T10:01:08.540Z,60.54
2024-05-09T10:03:38.578Z,62.60
2024-05-09T10:06:07.238Z,61.57
2024-05-09T10:08:40.468Z,63.64
2024-05-09T10:11:07.459Z,62.10
2024-05-09T10:13:37.194Z,61.29
2024-05-09T10:16:09.048Z,61.24
2024-05-09T10:18:39.379Z,59.60
2024-05-09T10:21:16.576Z,59.60
2024-05-09T10:23:59.433Z,59.11
2024-05-09T10:26:33.730Z,59.72
2024-05-09T10:29:03.470Z,59.80
2024-05-09T10:31:30.563Z,59.44
2024-05-09T10:34:00.289Z,58.87
2024-05-09T10:36:28.951Z,58.66
2024-05-09T10:39:02.238Z,59.94
2024-05-09T10:41:29.209Z,60.76
2024-05-09T10:43:58.531Z,59.70
2024-05-09T10:46:25.391Z,59.98
2024-05-09T10:48:55.054Z,58.36
2024-05-09T10:51:22.348Z,58.32
2024-05-09T10:53:52.495Z,57.23
2024-05-09T10:56:21.931Z,56.73
2024-05-09T10:58:54.682Z,55.73
2024-05-09T11:01:21.606Z,55.25
2024-05-09T11:03:52.051Z,54.56
2024-05-09T11:06:19.077Z,55.59
2024-05-09T11:08:49.430Z,55.70
2024-05-09T11:11:16.730Z,55.95
2024-05-09T11:13:48.908Z,56.52
2024-05-09T11:16:19.380Z,55.36
2024-05-09T11:18:56.307Z,55.96
2024-05-09T11:21:24.216Z,56.96
2024-05-09T11:23:54.187Z,56.78
2024-05-09T11:26:21.933Z,55.20
2024-05-09T11:28:54.676Z,54.12
2024-05-09T11:31:21.870Z,55.49
2024-05-09T11:33:51.554Z,53.98
2024-05-09T11:36:18.413Z,54.16
2024-05-09T11:38:47.853Z,53.28
2024-05-09T11:41:17.508Z,52.74
2024-05-09T11:43:47.033Z,52.06
2024-05-09T11:46:16.632Z,52.58
2024-05-09T11:48:46.331Z,52.12
2024-05-09T11:51:13.178Z,52.45
2024-05-09T11:53:42.516Z,52.31
2024-05-09T11:56:11.602Z,50.04
2024-05-09T11:58:41.501Z,51.11
2024-05-09T12:01:08.392Z,51.69
2024-05-09T12:03:40.531Z,51.30
2024-05-09T12:06:07.701Z,52.04
2024-05-09T12:08:37.173Z,52.03
2024-05-09T12:11:04.378Z,51.19
2024-05-09T12:13:33.907Z,51.71
2024-05-09T12:16:01.157Z,50.18
2024-05-09T12:18:31.409Z,49.73
2024-05-09T12:21:01.334Z,49.99
2024-05-09T12:23:30.963Z,50.11
2024-05-09T12:25:57.751Z,49.30
2024-05-09T12:28:27.165Z,48.84
2024-05-09T12:30:53.957Z,48.58
2024-05-09T12:33:23.456Z,48.63
2024-05-09T12:35:51.154Z,48.47
2024-05-09T12:38:24.099Z,47.41
2024-05-09T12:40:51.140Z,46.94
2024-05-09T12:43:20.806Z,47.04
2024-05-09T12:45:47.777Z,46.59
2024-05-09T12:48:17.336Z,46.88
2024-05-09T12:50:44.251Z,48.27
2024-05-09T12:53:13.819Z,48.29
2024-05-09T12:55:52.792Z,48.73
2024-05-09T12:58:26.389Z,48.05
2024-05-09T13:00:53.406Z,48.78
2024-05-09T13:03:23.351Z,49.03
2024-05-09T13:05:50.888Z,48.17
2024-05-09T13:08:20.487Z,48.50
2024-05-09T13:10:50.353Z,49.35
2024-05-09T13:13:20.152Z,49.46
2024-05-09T13:15:47.077Z,48.78
2024-05-09T13:18:16.704Z,49.30
2024-05-09T13:20:44.199Z,49.70
2024-05-09T13:23:13.701Z,49.74
2024-05-09T13:25:40.522Z,49.78
2024-05-09T13:28:12.680Z,49.73
2024-05-09T13:30:41.848Z,48.71
2024-05-09T13:33:12.986Z,48.25
2024-05-09T13:35:45.491Z,47.88
2024-05-09T13:38:19.260Z,47.79
2024-05-09T13:40:46.624Z,47.55
2024-05-09T13:43:19.149Z,48.46
2024-05-09T13:45:46.439Z,48.63
2024-05-09T13:48:16.094Z,48.65
2024-05-09T13:50:43.135Z,49.64
2024-05-09T13:53:12.535Z,49.28
2024-05-09T13:55:39.855Z,49.31
2024-05-09T13:58:09.907Z,50.39
2024-05-09T14:00:46.344Z,50.46
2024-05-09T14:03:19.852Z,50.28
2024-05-09T14:05:48.161Z,50.32
2024-05-09T14:08:18.615Z,50.20
2024-05-09T14:10:46.959Z,49.67
2024-05-09T14:13:17.409Z,48.29
2024-05-09T14:15:47.240Z,49.00
2024-05-09T14:18:17.273Z,49.75
2024-05-09T14:20:44.102Z,50.03
2024-05-09T14:23:13.593Z,49.53
2024-05-09T14:25:42.720Z,49.83
2024-05-09T14:28:13.922Z,47.89
2024-05-09T14:30:41.022Z,48.17
2024-05-09T14:33:16.207Z,48.11
2024-05-09T14:35:43.124Z,47.28
2024-05-09T14:38:12.515Z,48.17
2024-05-09T14:40:43.063Z,47.75
2024-05-09T14:43:14.543Z,47.96
2024-05-09T14:45:42.057Z,47.92
2024-05-09T14:48:14.786Z,48.39
2024-05-09T14:50:42.317Z,47.37
2024-05-09T14:53:13.188Z,47.04
2024-05-09T14:55:42.273Z,47.78
2024-05-09T14:58:13.771Z,47.39
2024-05-09T15:00:46.157Z,47.52
2024-05-09T15:03:22.686Z,46.78
2024-05-09T15:05:51.084Z,46.42
2024-05-09T15:08:21.484Z,46.22
2024-05-09T15:10:49.948Z,46.58
2024-05-09T15:13:20.222Z,47.45
2024-05-09T15:15:47.277Z,48.18
2024-05-09T15:18:17.157Z,48.14
2024-05-09T15:20:47.139Z,47.70
2024-05-09T15:23:16.573Z,47.99
2024-05-09T15:25:44.686Z,48.59
2024-05-09T15:28:14.250Z,48.84
2024-05-09T15:30:45.424Z,50.77
2024-05-09T15:33:16.518Z,51.87
2024-05-09T15:35:44.803Z,51.27
2024-05-09T15:38:18.240Z,49.84
2024-05-09T15:40:45.326Z,49.84
2024-05-09T15:43:14.770Z,50.40
2024-05-09T15:45:42.035Z,50.64
2024-05-09T15:48:12.295Z,51.25
2024-05-09T15:50:41.570Z,51.13
2024-05-09T15:53:13.142Z,51.00
2024-05-09T15:55:45.788Z,51.33
2024-05-09T15:58:13.444Z,51.30
2024-05-09T16:00:45.620Z,51.28
2024-05-09T16:03:14.884Z,51.20
2024-05-09T16:05:46.665Z,51.14
2024-05-09T16:08:14.911Z,50.83
2024-05-09T16:10:48.012Z,50.54
2024-05-09T16:13:16.479Z,50.44
2024-05-09T16:15:46.864Z,50.68
2024-05-09T16:18:13.921Z,50.77
2024-05-09T16:20:44.938Z,50.64
2024-05-09T16:23:13.323Z,50.49
2024-05-09T16:25:45.354Z,50.50
2024-05-09T16:28:15.013Z,50.36
2024-05-09T16:30:44.728Z,50.75
2024-05-09T16:33:12.017Z,51.32
2024-05-09T16:35:41.761Z,50.58
2024-05-09T16:38:08.906Z,50.41
2024-05-09T16:40:40.922Z,50.43
2024-05-09T16:43:09.236Z,51.25
2024-05-09T16:45:43.787Z,52.29
2024-05-09T16:48:11.359Z,53.06
2024-05-09T16:50:40.847Z,52.14
2024-05-09T16:53:08.376Z,50.78
2024-05-09T16:55:38.376Z,50.95
2024-05-09T16:58:06.585Z,50.86
2024-05-09T17:00:41.494Z,51.78
2024-05-09T17:03:15.136Z,52.78
2024-05-09T17:05:47.117Z,53.16
2024-05-09T17:08:15.231Z,52.90
2024-05-09T17:10:44.820Z,53.18
2024-05-09T17:13:14.240Z,52.67
2024-05-09T17:15:44.111Z,52.85
2024-05-09T17:18:16.547Z,53.55
2024-05-09T17:20:43.412Z,53.05
2024-05-09T17:23:14.911Z,53.12
2024-05-09T17:25:42.297Z,53.72
2024-05-09T17:28:12.718Z,53.54
2024-05-09T17:30:41.824Z,53.28
2024-05-09T17:33:13.256Z,52.65
2024-05-09T17:35:49.697Z,52.95
2024-05-09T17:38:16.498Z,52.43
2024-05-09T17:40:45.925Z,53.09
2024-05-09T17:43:12.896Z,53.04
2024-05-09T17:45:42.619Z,53.55
2024-05-09T17:48:10.911Z,53.05
2024-05-09T17:50:42.071Z,53.42
2024-05-09T17:53:11.724Z,53.80
2024-05-09T17:55:41.617Z,53.38
2024-05-09T17:58:09.625Z,53.84
2024-05-09T18:00:41.813Z,53.08
2024-05-09T18:03:12.019Z,53.05
2024-05-09T18:05:44.128Z,52.99
2024-05-09T18:08:14.503Z,53.35
2024-05-09T18:10:44.306Z,53.19
2024-05-09T18:13:12.284Z,53.08
2024-05-09T18:15:42.195Z,54.11
2024-05-09T18:18:10.493Z,54.35
2024-05-09T18:20:44.419Z,54.51
2024-05-09T18:23:17.939Z,54.28
2024-05-09T18:25:48.595Z,54.95
2024-05-09T18:28:16.711Z,54.76
2024-05-09T18:30:46.766Z,55.32
2024-05-09T18:33:13.961Z,55.71
2024-05-09T18:35:45.276Z,55.79
2024-05-09T18:38:12.838Z,55.56
2024-05-09T18:40:47.408Z,56.16
2024-05-09T18:43:16.391Z,56.30
2024-05-09T18:45:46.180Z,56.92
2024-05-09T18:48:13.408Z,57.01
2024-05-09T18:50:42.865Z,57.69
2024-05-09T18:53:11.902Z,57.92
2024-05-09T18:55:45.306Z,57.90
2024-05-09T18:58:12.515Z,58.05
2024-05-09T19:00:45.297Z,58.78
2024-05-09T19:03:14.917Z,58.79
2024-05-09T19:05:46.207Z,59.36
2024-05-09T19:08:14.451Z,59.77
2024-05-09T19:10:47.874Z,59.85
2024-05-09T19:13:15.199Z,60.00
2024-05-09T19:15:45.063Z,60.56
2024-05-09T19:18:13.715Z,60.80
2024-05-09T19:20:43.978Z,60.96
2024-05-09T19:23:11.539Z,61.12
2024-05-09T19:25:41.224Z,61.49
2024-05-09T19:28:10.778Z,61.47
2024-05-09T19:30:42.339Z,61.96
2024-05-09T19:33:11.568Z,62.20
2024-05-09T19:35:42.318Z,62.47
2024-05-09T19:38:09.279Z,62.32
2024-05-09T19:40:38.765Z,62.87
2024-05-09T19:43:06.436Z,63.18
2024-05-09T19:45:38.898Z,63.36
2024-05-09T19:48:07.004Z,63.89
2024-05-09T19:50:42.215Z,63.62
2024-05-09T19:53:11.834Z,64.20
2024-05-09T19:55:41.820Z,64.50
2024-05-09T19:58:09.722Z,64.70
2024-05-09T20:00:43.655Z,64.78
2024-05-09T20:03:12.322Z,65.12
2024-05-09T20:05:42.105Z,65.67
2024-05-09T20:08:09.164Z,65.99
2024-05-09T20:10:38.963Z,66.13
2024-05-09T20:13:07.281Z,66.11
2024-05-09T20:15:38.378Z,66.34
2024-05-09T20:18:08.513Z,66.93
2024-05-09T20:20:41.734Z,66.89
2024-05-09T20:23:11.093Z,67.36
2024-05-09T20:25:40.650Z,67.83
2024-05-09T20:28:07.681Z,68.08
2024-05-09T20:30:37.644Z,68.16
2024-05-09T20:33:08.959Z,68.76
2024-05-09T20:35:39.327Z,68.89
2024-05-09T20:38:06.193Z,69.01
2024-05-09T20:40:38.716Z,69.43
2024-05-09T20:43:07.596Z,69.47
2024-05-09T20:45:37.506Z,70.07
2024-05-09T20:48:08.461Z,70.06
2024-05-09T20:50:41.274Z,70.42
2024-05-09T20:53:10.539Z,70.34
2024-05-09T20:55:39.996Z,70.73
2024-05-09T20:58:06.884Z,71.29
2024-05-09T21:00:40.497Z,71.45
2024-05-09T21:03:14.456Z,71.86
2024-05-09T21:05:45.301Z,71.78
2024-05-09T21:08:12.294Z,72.20
2024-05-09T21:10:41.934Z,72.41
2024-05-09T21:13:08.845Z,72.28
2024-05-09T21:15:38.411Z,72.42
2024-05-09T21:18:05.699Z,72.81
2024-05-09T21:20:37.923Z,73.17
2024-05-09T21:23:05.151Z,73.22
2024-05-09T21:25:34.574Z,73.33
2024-05-09T21:28:01.509Z,73.99
2024-05-09T21:30:38.798Z,74.62
2024-05-09T21:33:10.854Z,75.71
2024-05-09T21:35:45.055Z,77.17
2024-05-09T21:38:15.894Z,77.65
2024-05-09T21:40:43.234Z,78.41
2024-05-09T21:43:37.936Z,78.77
2024-05-09T21:46:05.380Z,79.11
2024-05-09T21:48:35.045Z,79.48
2024-05-09T21:51:12.605Z,80.40
2024-05-09T21:53:42.981Z,80.67
2024-05-09T21:56:09.753Z,80.84
2024-05-09T21:58:39.157Z,81.22
2024-05-09T22:01:06.146Z,81.69
2024-05-09T22:03:35.827Z,81.91
2024-05-09T22:06:05.692Z,81.83
2024-05-09T22:08:35.173Z,81.69
2024-05-09T22:11:02.175Z,81.99
2024-05-09T22:13:31.660Z,82.56
2024-05-09T22:15:58.516Z,83.35
2024-05-09T22:18:27.926Z,84.25
2024-05-09T22:20:55.175Z,85.11
2024-05-09T22:23:27.148Z,85.25
2024-05-09T22:25:53.775Z,85.47
2024-05-09T22:28:23.179Z,86.29
2024-05-09T22:30:50.602Z,86.95
2024-05-09T22:33:20.074Z,87.45
2024-05-09T22:35:47.968Z,87.70
2024-05-09T22:38:17.404Z,87.34
2024-05-09T22:40:49.386Z,87.79
2024-05-09T22:43:23.406Z,87.67
2024-05-09T22:45:51.942Z,87.92
2024-05-09T22:48:21.959Z,87.73
2024-05-09T22:50:49.032Z,88.07
2024-05-09T22:53:18.825Z,88.85
2024-05-09T22:55:48.190Z,89.44
2024-05-09T22:58:18.133Z,90.14
2024-05-09T23:00:45.153Z,90.76
2024-05-09T23:03:15.755Z,91.34
2024-05-09T23:05:42.672Z,92.42
2024-05-09T23:08:12.807Z,93.00
2024-05-09T23:10:39.740Z,93.00
2024-05-09T23:13:11.881Z,93.15
2024-05-09T23:15:38.934Z,93.15
2024-05-09T23:18:09.317Z,93.37
2024-05-09T23:20:39.106Z,93.55
2024-05-09T23:23:11.004Z,93.18
2024-05-09T23:25:39.039Z,93.18
2024-05-09T23:28:08.733Z,93.49
2024-05-09T23:30:40.604Z,93.73
2024-05-09T23:33:13.403Z,94.12
2024-05-09T23:35:41.865Z,94.68
2024-05-09T23:38:11.411Z,94.88
2024-05-09T23:40:40.735Z,94.85
2024-05-09T23:43:12.482Z,94.85
2024-05-09T23:45:43.389Z,95.08
2024-05-09T23:48:13.528Z,95.42
2024-05-09T23:50:41.404Z,96.01
2024-05-09T23:53:11.472Z,96.24
2024-05-09T23:55:39.161Z,96.67
2024-05-09T23:58:09.286Z,96.81
